Time;durP1;ratioP1;P1;durP2;ratioP2;P2;SDS_P1;SDS_P2;PMS_P1;PMS_P2;Temp;Humidity;BMP_temperature;BMP_pressure;BME280_temperature;BME280_humidity;BME280_pressure;Samples;Min_cycle;Max_cycle;Signal;HPM_P1;HPM_P2
2021/08/17 00:00:49;;;;;;;11.27;3.70;;;14.70;99.90;;;;;;5006587;28;25097;-59
2021/08/17 00:03:15;;;;;;;11.77;4.70;;;14.60;99.90;;;;;;5009107;28;25125;-59
2021/08/17 00:05:42;;;;;;;8.40;3.70;;;14.60;99.90;;;;;;5010511;28;25057;-59
2021/08/17 00:08:08;;;;;;;13.80;4.30;;;14.60;99.90;;;;;;5005591;28;25102;-60
2021/08/17 00:10:34;;;;;;;7.55;3.15;;;14.70;99.90;;;;;;5010904;28;25143;-59
2021/08/17 00:13:00;;;;;;;12.48;4.00;;;14.60;99.90;;;;;;5008630;28;25081;-61
2021/08/17 00:15:26;;;;;;;12.57;3.72;;;14.70;99.90;;;;;;5010269;28;25063;-61
2021/08/17 00:17:52;;;;;;;12.60;4.32;;;14.70;99.90;;;;;;5009201;28;25135;-60
2021/08/17 00:20:17;;;;;;;11.05;4.00;;;14.60;99.90;;;;;;5010143;28;25069;-59
2021/08/17 00:22:43;;;;;;;12.40;4.25;;;14.70;99.90;;;;;;5013003;28;25082;-60
2021/08/17 00:25:10;;;;;;;10.55;3.47;;;14.60;99.90;;;;;;5009265;28;25148;-59
2021/08/17 00:27:36;;;;;;;7.95;3.67;;;14.70;99.90;;;;;;5015536;28;25071;-58
2021/08/17 00:30:03;;;;;;;11.85;4.43;;;14.60;99.90;;;;;;5010640;28;25141;-60
2021/08/17 00:32:28;;;;;;;11.10;3.70;;;14.60;99.90;;;;;;5013529;28;25122;-61
2021/08/17 00:34:56;;;;;;;12.25;3.88;;;14.60;99.90;;;;;;5009746;28;25109;-59
2021/08/17 00:37:21;;;;;;;12.95;4.00;;;14.50;99.90;;;;;;5010770;28;25064;-60
2021/08/17 00:39:47;;;;;;;10.98;4.22;;;14.50;99.90;;;;;;5009710;28;25283;-57
2021/08/17 00:42:13;;;;;;;10.18;3.33;;;14.50;99.90;;;;;;5010088;28;25084;-60
2021/08/17 00:44:38;;;;;;;14.25;4.07;;;14.60;99.90;;;;;;5007880;28;25062;-58
2021/08/17 00:47:04;;;;;;;12.13;3.70;;;14.60;99.90;;;;;;5003573;28;25117;-60
2021/08/17 00:49:31;;;;;;;11.82;3.80;;;14.60;99.90;;;;;;5012025;28;25153;-59
2021/08/17 00:52:07;;;;;;;10.82;4.20;;;14.60;99.90;;;;;;5013515;28;25136;-59
2021/08/17 00:54:37;;;;;;;8.45;3.58;;;14.60;99.90;;;;;;5017418;28;25088;-58
2021/08/17 00:57:03;;;;;;;11.68;4.20;;;14.70;99.90;;;;;;5014938;28;25119;-60
2021/08/17 00:59:32;;;;;;;11.63;4.15;;;14.70;99.90;;;;;;5016286;28;25104;-59
2021/08/17 01:01:57;;;;;;;12.02;4.18;;;14.90;99.90;;;;;;5004434;28;25147;-60
2021/08/17 01:04:23;;;;;;;7.50;4.28;;;14.90;99.90;;;;;;4985690;28;25119;-59
2021/08/17 01:06:49;;;;;;;10.82;4.03;;;14.90;99.90;;;;;;5009047;28;25085;-59
2021/08/17 01:09:14;;;;;;;13.75;4.53;;;14.80;99.90;;;;;;5010005;28;25057;-59
2021/08/17 01:11:47;;;;;;;8.90;3.35;;;14.80;99.90;;;;;;5009824;28;25069;-59
2021/08/17 01:14:21;;;;;;;;;;;14.80;99.90;;;;;;5007002;28;25069;-60
2021/08/17 01:16:48;;;;;;;14.15;4.43;;;14.80;99.90;;;;;;5009201;28;25138;-59
2021/08/17 01:19:17;;;;;;;11.52;4.18;;;14.80;99.90;;;;;;5009468;28;25073;-60
2021/08/17 01:21:43;;;;;;;13.38;4.43;;;14.80;99.90;;;;;;5009975;28;25073;-61
2021/08/17 01:24:09;;;;;;;9.75;4.28;;;14.80;99.90;;;;;;5010275;28;25088;-59
2021/08/17 01:26:34;;;;;;;10.60;4.20;;;14.90;99.90;;;;;;5008660;28;25073;-59
2021/08/17 01:29:00;;;;;;;11.43;4.45;;;14.90;99.90;;;;;;5009617;28;25076;-60
2021/08/17 01:31:26;;;;;;;15.57;5.53;;;14.90;99.90;;;;;;5007968;28;25082;-59
2021/08/17 01:33:51;;;;;;;14.43;4.40;;;14.90;99.90;;;;;;5009514;28;25094;-60
2021/08/17 01:36:17;;;;;;;11.85;4.45;;;14.80;99.90;;;;;;5009896;28;25066;-59
2021/08/17 01:38:47;;;;;;;10.05;4.85;;;14.80;99.90;;;;;;5008621;28;25174;-60
2021/08/17 01:41:13;;;;;;;11.98;4.95;;;14.80;99.90;;;;;;5008194;28;25061;-59
2021/08/17 01:43:39;;;;;;;11.52;5.00;;;14.80;99.90;;;;;;5008735;28;25169;-60
2021/08/17 01:46:05;;;;;;;16.40;5.63;;;14.90;99.90;;;;;;5008641;28;25059;-59
2021/08/17 01:48:32;;;;;;;11.68;4.80;;;14.90;99.90;;;;;;5007938;28;25084;-59
2021/08/17 01:50:59;;;;;;;11.85;4.78;;;14.90;99.90;;;;;;5007095;28;25088;-59
2021/08/17 01:53:26;;;;;;;14.00;5.13;;;14.90;99.90;;;;;;5008101;28;25057;-61
2021/08/17 01:55:53;;;;;;;9.73;5.15;;;14.90;99.90;;;;;;5018898;22;25070;-66
2021/08/17 01:58:19;;;;;;;11.15;5.03;;;14.70;99.90;;;;;;5001679;28;25160;-67
2021/08/17 02:00:46;;;;;;;10.60;4.68;;;14.80;99.90;;;;;;4998340;28;25071;-66
2021/08/17 02:03:11;;;;;;;17.33;5.10;;;14.80;99.90;;;;;;5003684;28;25061;-67
2021/08/17 02:05:37;;;;;;;15.07;5.00;;;14.70;99.90;;;;;;4995498;28;25147;-67
2021/08/17 02:08:04;;;;;;;11.65;4.97;;;14.80;99.90;;;;;;4995004;28;25059;-66
2021/08/17 02:10:30;;;;;;;13.00;5.32;;;14.90;99.90;;;;;;4985858;28;25083;-67
2021/08/17 02:12:55;;;;;;;11.50;6.00;;;14.90;99.90;;;;;;4992955;28;25093;-67
2021/08/17 02:15:21;;;;;;;8.45;5.25;;;15.00;99.90;;;;;;4989822;28;25105;-67
2021/08/17 02:17:47;;;;;;;13.77;5.35;;;14.90;99.90;;;;;;4996022;28;25061;-67
2021/08/17 02:20:12;;;;;;;9.07;5.45;;;14.80;99.90;;;;;;4993387;28;25065;-67
2021/08/17 02:22:39;;;;;;;9.70;5.55;;;14.80;99.90;;;;;;4989066;28;25075;-69
2021/08/17 02:25:05;;;;;;;11.63;5.63;;;15.00;99.90;;;;;;4987990;28;25140;-67
2021/08/17 02:27:36;;;;;;;12.13;5.32;;;15.10;99.90;;;;;;4989920;28;25075;-67
2021/08/17 02:30:03;;;;;;;16.92;6.03;;;15.20;99.90;;;;;;4971739;28;25064;-67
2021/08/17 02:32:29;;;;;;;19.67;6.30;;;15.20;99.90;;;;;;4990266;28;25059;-67
2021/08/17 02:34:55;;;;;;;10.15;5.80;;;15.10;99.90;;;;;;4985602;28;25067;-67
2021/08/17 02:37:21;;;;;;;14.20;6.50;;;15.10;99.90;;;;;;4991055;28;25126;-67
2021/08/17 02:39:46;;;;;;;12.25;5.80;;;15.20;99.90;;;;;;4993495;28;25071;-67
2021/08/17 02:42:12;;;;;;;8.77;5.43;;;15.20;99.90;;;;;;4995081;28;25072;-67
2021/08/17 02:44:37;;;;;;;10.13;5.72;;;15.20;99.90;;;;;;4971837;28;25066;-67
2021/08/17 02:47:03;;;;;;;15.65;6.40;;;15.30;99.90;;;;;;4984862;28;25062;-67
2021/08/17 02:49:32;;;;;;;12.52;6.35;;;15.40;99.90;;;;;;4988454;28;25159;-68
2021/08/17 02:51:59;;;;;;;16.65;6.75;;;15.30;99.90;;;;;;4986336;28;25090;-66
2021/08/17 02:54:25;;;;;;;14.13;6.32;;;15.20;99.90;;;;;;4988153;28;25073;-67
2021/08/17 02:56:51;;;;;;;18.83;5.85;;;15.20;99.90;;;;;;4987613;28;25074;-67
2021/08/17 02:59:17;;;;;;;13.48;6.10;;;15.20;99.90;;;;;;4987978;28;25052;-67
2021/08/17 03:01:42;;;;;;;16.60;6.55;;;15.10;99.90;;;;;;4987172;28;25127;-66
2021/08/17 03:04:08;;;;;;;13.65;6.07;;;15.20;99.90;;;;;;4990277;28;25146;-67
2021/08/17 03:06:33;;;;;;;14.57;7.45;;;15.00;99.90;;;;;;4988607;28;25066;-66
2021/08/17 03:08:59;;;;;;;15.40;7.55;;;15.00;99.90;;;;;;4987931;28;25055;-67
2021/08/17 03:11:25;;;;;;;12.50;6.28;;;14.90;99.90;;;;;;4985525;28;25065;-66
2021/08/17 03:13:51;;;;;;;19.10;7.60;;;14.90;99.90;;;;;;4984355;28;25063;-67
2021/08/17 03:16:17;;;;;;;20.45;7.32;;;14.90;99.90;;;;;;4995859;28;25071;-67
2021/08/17 03:18:42;;;;;;;15.80;7.32;;;14.70;99.90;;;;;;4991418;28;25103;-67
2021/08/17 03:21:08;;;;;;;21.38;8.10;;;14.80;99.90;;;;;;4993713;28;25085;-67
2021/08/17 03:23:34;;;;;;;18.25;8.57;;;14.80;99.90;;;;;;4993700;28;25051;-67
2021/08/17 03:25:59;;;;;;;17.67;7.70;;;14.80;99.90;;;;;;4980892;28;25163;-67
2021/08/17 03:28:25;;;;;;;15.38;7.80;;;14.80;99.90;;;;;;4992751;28;25140;-66
2021/08/17 03:30:51;;;;;;;16.52;8.38;;;14.70;99.90;;;;;;4989997;28;25051;-67
2021/08/17 03:33:16;;;;;;;14.13;7.68;;;14.70;99.90;;;;;;4997558;28;25077;-67
2021/08/17 03:35:42;;;;;;;16.73;8.95;;;14.70;99.90;;;;;;4998113;28;25076;-66
2021/08/17 03:38:08;;;;;;;17.50;9.48;;;14.70;99.90;;;;;;4995277;28;25095;-66
2021/08/17 03:40:33;;;;;;;23.98;10.55;;;14.60;99.90;;;;;;4992475;28;25067;-67
2021/08/17 03:42:59;;;;;;;22.67;11.23;;;14.60;99.90;;;;;;4987409;28;25054;-66
2021/08/17 03:45:25;;;;;;;27.85;11.85;;;14.50;99.90;;;;;;4985361;28;25048;-67
2021/08/17 03:47:51;;;;;;;29.65;12.65;;;14.60;99.90;;;;;;4987783;28;25143;-66
2021/08/17 03:50:18;;;;;;;27.40;12.70;;;14.60;99.90;;;;;;4986523;28;25123;-65
2021/08/17 03:52:44;;;;;;;31.90;14.70;;;14.60;99.90;;;;;;4986571;28;25183;-66
2021/08/17 03:55:11;;;;;;;31.30;13.75;;;14.60;99.90;;;;;;4985754;28;25104;-66
2021/08/17 03:57:37;;;;;;;29.13;14.50;;;14.60;99.90;;;;;;4986934;28;25088;-66
2021/08/17 04:00:14;;;;;;;33.28;14.32;;;14.60;99.90;;;;;;4969722;28;25171;-65
2021/08/17 04:02:41;;;;;;;28.60;15.25;;;14.60;99.90;;;;;;4986592;28;25053;-67
2021/08/17 04:05:08;;;;;;;35.65;16.85;;;14.60;99.90;;;;;;4969548;28;25064;-66
2021/08/17 04:07:34;;;;;;;43.70;17.20;;;14.50;99.90;;;;;;4986651;28;25059;-66
2021/08/17 04:09:59;;;;;;;41.45;16.67;;;14.50;99.90;;;;;;4985463;28;25090;-66
2021/08/17 04:12:25;;;;;;;37.70;17.90;;;14.50;99.90;;;;;;4990209;28;25055;-66
2021/08/17 04:14:50;;;;;;;38.78;17.00;;;14.60;99.90;;;;;;4973169;28;25076;-66
2021/08/17 04:17:16;;;;;;;45.53;18.90;;;14.60;99.90;;;;;;4986171;28;25101;-68
2021/08/17 04:19:43;;;;;;;42.17;18.70;;;14.60;99.90;;;;;;4984861;28;25104;-67
2021/08/17 04:22:09;;;;;;;50.90;18.85;;;14.70;99.90;;;;;;4968646;28;25108;-66
2021/08/17 04:24:35;;;;;;;43.13;18.50;;;14.70;99.90;;;;;;4986515;28;25094;-66
2021/08/17 04:27:01;;;;;;;42.45;18.52;;;14.70;99.90;;;;;;4989052;28;25111;-68
2021/08/17 04:29:26;;;;;;;41.28;18.13;;;14.80;99.90;;;;;;4992290;28;25157;-66
2021/08/17 04:31:52;;;;;;;43.15;19.67;;;14.80;99.90;;;;;;4990508;28;25096;-67
2021/08/17 04:34:18;;;;;;;41.25;17.77;;;14.80;99.90;;;;;;4973019;28;25063;-66
2021/08/17 04:36:43;;;;;;;36.63;18.00;;;14.90;99.90;;;;;;4993328;28;25163;-67
2021/08/17 04:39:09;;;;;;;41.55;18.02;;;15.00;99.90;;;;;;4984628;28;25158;-67
2021/08/17 04:41:34;;;;;;;43.40;18.25;;;15.00;99.90;;;;;;4988029;28;25067;-67
2021/08/17 04:44:00;;;;;;;41.83;17.88;;;15.00;99.90;;;;;;4980764;28;25163;-67
2021/08/17 04:46:25;;;;;;;50.80;18.58;;;15.00;99.90;;;;;;4991771;28;25061;-66
2021/08/17 04:48:51;;;;;;;50.22;18.77;;;15.00;99.90;;;;;;4989874;28;25101;-67
2021/08/17 04:51:16;;;;;;;36.80;16.83;;;15.00;99.90;;;;;;4990816;28;25097;-68
2021/08/17 04:53:42;;;;;;;45.13;18.02;;;15.10;99.90;;;;;;4991031;28;25068;-66
2021/08/17 04:56:08;;;;;;;50.38;17.90;;;15.20;99.90;;;;;;4989268;28;25110;-67
2021/08/17 04:58:33;;;;;;;44.78;17.73;;;15.30;99.90;;;;;;4990172;28;25160;-65
2021/08/17 05:00:59;;;;;;;37.15;16.63;;;15.30;99.90;;;;;;4989529;28;25109;-67
2021/08/17 05:03:26;;;;;;;45.42;17.65;;;15.30;99.90;;;;;;4989168;28;25147;-65
2021/08/17 05:05:52;;;;;;;50.83;17.90;;;15.20;99.90;;;;;;4988707;28;25102;-66
2021/08/17 05:08:17;;;;;;;42.17;17.73;;;15.20;99.90;;;;;;4988762;28;25097;-65
2021/08/17 05:10:43;;;;;;;46.20;18.33;;;15.20;99.90;;;;;;4990328;28;25121;-65
2021/08/17 05:13:09;;;;;;;45.03;16.30;;;15.30;99.90;;;;;;4988652;28;25071;-66
2021/08/17 05:15:35;;;;;;;34.92;16.10;;;15.30;99.90;;;;;;4988594;28;25049;-67
2021/08/17 05:18:02;;;;;;;38.65;15.70;;;15.40;99.90;;;;;;4987855;28;25116;-66
2021/08/17 05:20:34;;;;;;;40.00;14.60;;;15.40;99.90;;;;;;4985903;28;25121;-68
2021/08/17 05:22:59;;;;;;;39.22;14.30;;;15.50;99.90;;;;;;4985502;28;25081;-67
2021/08/17 05:25:25;;;;;;;38.75;15.75;;;15.40;99.90;;;;;;4988509;28;25070;-67
2021/08/17 05:27:53;;;;;;;43.03;17.40;;;15.50;99.90;;;;;;4994941;28;25090;-66
2021/08/17 05:30:18;;;;;;;41.38;15.70;;;15.50;99.90;;;;;;4986010;28;25056;-66
2021/08/17 05:32:44;;;;;;;41.88;14.45;;;15.50;99.90;;;;;;4992903;28;25086;-66
2021/08/17 05:35:10;;;;;;;40.28;13.35;;;15.50;99.90;;;;;;4990028;28;25104;-66
2021/08/17 05:37:36;;;;;;;35.13;14.07;;;15.50;99.90;;;;;;4988297;28;25057;-66
2021/08/17 05:40:04;;;;;;;40.30;14.00;;;15.60;99.90;;;;;;4995134;28;25078;-66
2021/08/17 05:42:29;;;;;;;38.47;14.07;;;15.60;99.90;;;;;;4992501;28;25070;-67
2021/08/17 05:44:55;;;;;;;37.72;15.25;;;15.60;99.90;;;;;;4990811;28;25072;-67
2021/08/17 05:47:20;;;;;;;30.50;13.52;;;15.50;99.90;;;;;;4989860;28;25069;-67
2021/08/17 05:49:47;;;;;;;34.85;13.13;;;15.50;99.90;;;;;;4990459;28;25147;-66
2021/08/17 05:52:13;;;;;;;32.22;11.73;;;15.60;99.90;;;;;;4989817;28;25120;-67
2021/08/17 05:54:39;;;;;;;27.65;11.98;;;15.60;99.90;;;;;;4987441;28;25077;-66
2021/08/17 05:57:05;;;;;;;34.00;13.75;;;15.70;99.90;;;;;;4989428;28;25059;-68
2021/08/17 05:59:31;;;;;;;31.52;12.27;;;15.80;99.90;;;;;;4988315;28;25074;-65
2021/08/17 06:02:00;;;;;;;25.95;10.95;;;15.80;99.90;;;;;;4989171;28;25150;-65
2021/08/17 06:04:26;;;;;;;29.77;12.43;;;15.90;99.90;;;;;;4982071;28;25113;-65
2021/08/17 06:06:51;;;;;;;29.70;12.32;;;16.00;99.90;;;;;;4987560;28;25057;-66
2021/08/17 06:09:19;;;;;;;31.02;11.50;;;16.00;99.90;;;;;;4987996;28;25116;-66
2021/08/17 06:11:46;;;;;;;35.53;11.60;;;16.00;99.90;;;;;;4986513;28;25082;-66
2021/08/17 06:14:11;;;;;;;25.17;12.20;;;16.00;99.90;;;;;;4987099;28;25103;-66
2021/08/17 06:16:37;;;;;;;23.17;11.10;;;16.00;99.90;;;;;;4987133;28;25086;-66
2021/08/17 06:19:03;;;;;;;30.52;10.90;;;15.90;99.90;;;;;;4986932;28;25148;-66
2021/08/17 06:21:31;;;;;;;22.50;10.20;;;15.80;99.90;;;;;;4987334;28;25066;-66
2021/08/17 06:23:57;;;;;;;25.80;9.77;;;15.90;99.90;;;;;;4987680;28;25058;-68
2021/08/17 06:26:22;;;;;;;26.67;10.23;;;15.80;99.90;;;;;;4986785;28;25076;-66
2021/08/17 06:28:48;;;;;;;30.73;10.13;;;15.90;99.90;;;;;;4986654;28;25082;-66
2021/08/17 06:31:18;;;;;;;29.63;9.50;;;15.90;99.90;;;;;;4984410;28;25118;-66
2021/08/17 06:33:43;;;;;;;30.58;9.75;;;16.00;99.90;;;;;;4987158;28;25076;-66
2021/08/17 06:36:09;;;;;;;37.60;10.80;;;16.10;99.90;;;;;;4986666;28;25060;-66
2021/08/17 06:38:35;;;;;;;18.55;8.48;;;16.10;99.90;;;;;;4988186;28;25056;-67
2021/08/17 06:41:00;;;;;;;24.67;9.23;;;16.20;99.90;;;;;;4989086;28;25076;-66
2021/08/17 06:43:29;;;;;;;23.83;9.77;;;16.20;99.90;;;;;;4988379;28;25060;-68
2021/08/17 06:45:55;;;;;;;24.77;10.07;;;16.30;99.90;;;;;;4987652;28;25105;-67
2021/08/17 06:48:20;;;;;;;25.98;9.93;;;16.30;99.90;;;;;;4988422;28;25157;-65
2021/08/17 06:50:46;;;;;;;24.83;10.43;;;16.30;99.90;;;;;;4971023;28;25058;-65
2021/08/17 06:53:11;;;;;;;24.85;10.38;;;16.30;99.90;;;;;;4988324;28;25071;-66
2021/08/17 06:55:37;;;;;;;28.92;11.32;;;16.30;99.90;;;;;;4987478;28;25073;-68
2021/08/17 06:58:04;;;;;;;22.85;9.82;;;16.20;99.90;;;;;;4985424;28;25138;-66
2021/08/17 07:00:30;;;;;;;28.60;10.50;;;16.30;99.90;;;;;;4988792;28;25077;-66
2021/08/17 07:02:55;;;;;;;25.13;10.57;;;16.40;99.90;;;;;;4990925;28;25069;-66
2021/08/17 07:05:21;;;;;;;26.85;10.02;;;16.50;99.90;;;;;;4987651;28;25081;-67
2021/08/17 07:07:46;;;;;;;22.13;9.10;;;16.50;99.90;;;;;;4974249;28;25108;-66
2021/08/17 07:10:13;;;;;;;23.80;9.80;;;16.60;99.90;;;;;;4986876;28;25134;-67
2021/08/17 07:12:39;;;;;;;33.38;11.07;;;16.60;99.90;;;;;;4985792;28;25060;-67
2021/08/17 07:15:05;;;;;;;21.85;11.40;;;16.50;99.90;;;;;;4986181;28;25067;-65
2021/08/17 07:17:31;;;;;;;26.13;9.73;;;16.50;99.90;;;;;;4985711;28;25080;-65
2021/08/17 07:19:56;;;;;;;22.63;10.00;;;16.50;99.90;;;;;;4986522;28;24888;-65
2021/08/17 07:22:22;;;;;;;21.77;8.95;;;16.50;99.90;;;;;;4987224;28;25091;-65
2021/08/17 07:24:47;;;;;;;20.92;9.05;;;16.50;99.90;;;;;;4986469;28;25135;-65
2021/08/17 07:27:13;;;;;;;21.45;9.07;;;16.50;99.90;;;;;;4985819;28;25130;-64
2021/08/17 07:29:39;;;;;;;23.33;9.70;;;16.50;99.90;;;;;;4986605;28;25157;-66
2021/08/17 07:32:05;;;;;;;24.38;8.40;;;16.50;99.90;;;;;;4986441;28;25060;-67
2021/08/17 07:34:30;;;;;;;26.65;10.13;;;16.60;99.90;;;;;;4986592;28;25131;-68
2021/08/17 07:36:56;;;;;;;27.73;10.30;;;16.60;99.90;;;;;;4986234;28;25080;-66
2021/08/17 07:39:21;;;;;;;22.85;9.63;;;16.80;99.90;;;;;;4968095;28;25065;-66
2021/08/17 07:41:47;;;;;;;22.45;9.30;;;16.70;99.90;;;;;;4975830;28;25104;-66
2021/08/17 07:44:15;;;;;;;20.20;9.27;;;16.70;99.90;;;;;;4987489;28;25080;-68
2021/08/17 07:46:41;;;;;;;21.80;9.38;;;16.70;99.90;;;;;;4984470;28;25055;-65
2021/08/17 07:49:07;;;;;;;25.55;9.15;;;16.70;99.90;;;;;;4986421;28;25125;-66
2021/08/17 07:51:32;;;;;;;17.30;9.63;;;16.80;99.90;;;;;;4986850;28;25066;-66
2021/08/17 07:53:58;;;;;;;27.48;9.32;;;16.80;99.90;;;;;;4985681;28;25082;-66
2021/08/17 07:56:23;;;;;;;22.23;9.85;;;16.80;99.90;;;;;;5020337;22;25089;-79
2021/08/17 07:58:49;;;;;;;20.15;9.23;;;16.90;99.90;;;;;;5016747;28;25082;-77
2021/08/17 08:01:14;;;;;;;24.83;9.48;;;16.90;99.90;;;;;;5016938;28;25077;-77
2021/08/17 08:03:40;;;;;;;23.20;9.15;;;16.90;99.90;;;;;;5017748;28;25126;-78
2021/08/17 08:06:12;;;;;;;22.73;9.80;;;16.90;99.90;;;;;;5017066;28;25069;-79
2021/08/17 08:08:38;;;;;;;20.90;8.57;;;16.80;99.90;;;;;;5001662;28;25178;-78
2021/08/17 08:11:04;;;;;;;18.10;8.93;;;16.90;99.90;;;;;;5015917;28;25070;-79
2021/08/17 08:13:30;;;;;;;24.27;9.95;;;17.00;99.90;;;;;;5015989;28;25131;-77
2021/08/17 08:15:55;;;;;;;16.10;8.13;;;17.10;99.90;;;;;;5018328;28;25045;-79
2021/08/17 08:18:21;;;;;;;17.38;8.45;;;17.00;99.90;;;;;;5017466;28;25108;-80
2021/08/17 08:20:47;;;;;;;22.60;8.70;;;17.00;99.90;;;;;;5019878;28;25074;-77
2021/08/17 08:23:13;;;;;;;17.67;8.50;;;16.90;99.90;;;;;;5017272;28;25083;-77
2021/08/17 08:25:40;;;;;;;19.05;8.43;;;16.80;99.90;;;;;;5021930;28;25129;-79
2021/08/17 08:28:06;;;;;;;13.98;7.68;;;16.80;99.90;;;;;;5017480;28;25056;-78
2021/08/17 08:30:31;;;;;;;21.42;7.95;;;16.70;99.90;;;;;;5019293;28;25073;-78
2021/08/17 08:32:57;;;;;;;17.52;7.63;;;16.60;99.90;;;;;;5019070;28;25070;-79
2021/08/17 08:35:23;;;;;;;15.95;7.22;;;16.60;99.90;;;;;;5018968;28;25110;-79
2021/08/17 08:37:48;;;;;;;19.40;7.68;;;16.60;99.90;;;;;;4999991;28;25143;-79
2021/08/17 08:40:14;;;;;;;17.23;6.93;;;16.60;99.90;;;;;;5019204;28;25079;-81
2021/08/17 08:42:40;;;;;;;19.75;7.15;;;16.60;99.90;;;;;;5020424;28;25087;-78
2021/08/17 08:45:06;;;;;;;14.80;6.85;;;16.60;99.90;;;;;;5017226;28;25071;-76
2021/08/17 08:47:38;;;;;;;11.52;5.38;;;16.60;99.90;;;;;;5000572;28;25078;-77
2021/08/17 08:50:04;;;;;;;11.35;5.75;;;16.60;99.90;;;;;;5019119;28;25071;-79
2021/08/17 08:52:29;;;;;;;9.88;6.03;;;16.60;99.90;;;;;;5019038;28;25058;-78
2021/08/17 08:54:56;;;;;;;16.50;5.85;;;16.60;99.90;;;;;;5019949;28;25058;-79
2021/08/17 08:57:21;;;;;;;14.40;5.15;;;16.60;99.90;;;;;;5002739;28;25079;-78
2021/08/17 08:59:47;;;;;;;11.63;5.45;;;16.70;99.90;;;;;;5018496;28;25102;-79
2021/08/17 09:02:17;;;;;;;12.85;5.18;;;16.70;99.90;;;;;;5017884;28;25086;-81
2021/08/17 09:04:52;;;;;;;10.38;5.18;;;16.60;99.90;;;;;;5023765;28;25056;-78
2021/08/17 09:07:31;;;;;;;9.88;5.28;;;16.50;99.90;;;;;;5017927;28;25065;-79
2021/08/17 09:10:03;;;;;;;15.23;5.30;;;16.40;99.90;;;;;;5016970;28;25076;-81
2021/08/17 09:12:40;;;;;;;18.50;5.40;;;16.40;99.90;;;;;;5018733;28;25083;-79
2021/08/17 09:15:15;;;;;;;12.48;5.65;;;16.40;99.90;;;;;;5018257;28;25066;-80
2021/08/17 09:17:41;;;;;;;10.63;4.95;;;16.40;99.90;;;;;;5016701;28;25095;-79
2021/08/17 09:20:13;;;;;;;11.88;5.18;;;16.40;99.90;;;;;;5014828;28;25063;-74
2021/08/17 09:22:38;;;;;;;23.20;5.10;;;16.30;99.90;;;;;;5018370;28;25093;-80
2021/08/17 09:25:06;;;;;;;13.52;5.65;;;16.30;99.90;;;;;;5016065;28;25090;-77
2021/08/17 09:27:33;;;;;;;14.43;4.57;;;16.30;99.90;;;;;;5016445;28;25074;-77
2021/08/17 09:30:12;;;;;;;12.15;4.60;;;16.30;99.90;;;;;;5013110;28;25058;-76
2021/08/17 09:32:55;;;;;;;12.10;4.82;;;16.30;99.90;;;;;;5014097;28;25059;-73
2021/08/17 09:35:22;;;;;;;11.02;4.45;;;16.30;99.90;;;;;;5024041;28;25113;-76
2021/08/17 09:38:09;;;;;;;11.15;4.60;;;16.30;99.90;;;;;;5032587;28;25064;-78
2021/08/17 09:40:35;;;;;;;11.13;3.95;;;16.30;99.90;;;;;;5029765;28;25059;-75
2021/08/17 09:43:14;;;;;;;11.48;4.07;;;16.30;99.90;;;;;;5032773;28;25095;-77
2021/08/17 09:45:41;;;;;;;8.35;3.80;;;16.30;99.90;;;;;;5018934;28;25157;-76
2021/08/17 09:48:06;;;;;;;13.98;4.57;;;16.40;99.90;;;;;;5018738;28;25061;-77
2021/08/17 09:50:34;;;;;;;8.88;4.72;;;16.50;99.90;;;;;;5032061;28;25077;-77
2021/08/17 09:53:28;;;;;;;10.65;4.60;;;16.40;99.90;;;;;;5028256;28;25058;-80
2021/08/17 09:55:56;;;;;;;9.88;5.10;;;16.30;99.90;;;;;;5015188;28;25064;-78
2021/08/17 09:58:24;;;;;;;8.63;3.80;;;16.30;99.90;;;;;;5027124;28;25107;-78
2021/08/17 10:00:53;;;;;;;12.45;4.60;;;16.40;99.90;;;;;;5021632;28;25054;-78
2021/08/17 10:03:20;;;;;;;12.50;4.45;;;16.30;99.90;;;;;;5008086;28;25075;-77
2021/08/17 10:05:46;;;;;;;11.40;4.85;;;16.30;99.90;;;;;;5021913;28;25071;-80
2021/08/17 10:08:13;;;;;;;10.45;5.00;;;16.30;99.90;;;;;;5024431;28;25095;-77
2021/08/17 10:10:40;;;;;;;8.45;4.43;;;16.40;99.90;;;;;;5031778;28;25086;-78
2021/08/17 10:13:11;;;;;;;9.73;5.13;;;16.50;99.90;;;;;;5030387;28;25061;-76
2021/08/17 10:15:37;;;;;;;10.15;4.63;;;16.40;99.90;;;;;;5014358;28;25060;-77
2021/08/17 10:18:04;;;;;;;16.08;5.28;;;16.40;99.90;;;;;;5031562;28;25059;-78
2021/08/17 10:20:31;;;;;;;12.68;5.30;;;16.40;99.90;;;;;;5029415;28;25064;-78
2021/08/17 10:22:58;;;;;;;7.72;3.97;;;16.20;99.90;;;;;;5031995;28;25082;-76
2021/08/17 10:25:23;;;;;;;12.48;4.32;;;16.10;99.90;;;;;;5031620;28;25144;-78
2021/08/17 10:27:49;;;;;;;8.23;4.75;;;16.00;99.90;;;;;;5032258;28;25071;-76
2021/08/17 10:30:21;;;;;;;11.18;5.00;;;15.80;99.90;;;;;;5031969;28;25169;-79
2021/08/17 10:32:58;;;;;;;10.18;4.53;;;15.80;99.90;;;;;;5029374;28;25076;-77
2021/08/17 10:35:27;;;;;;;11.15;5.03;;;15.70;99.90;;;;;;5026438;28;25079;-77
2021/08/17 10:38:07;;;;;;;8.98;5.10;;;15.60;99.90;;;;;;5026020;28;25087;-76
2021/08/17 10:40:48;;;;;;;13.10;6.35;;;15.60;99.90;;;;;;5005670;28;25124;-77
2021/08/17 10:43:15;;;;;;;11.82;5.43;;;15.60;99.90;;;;;;5021248;28;25066;-76
2021/08/17 10:45:50;;;;;;;13.35;5.47;;;15.70;99.90;;;;;;5016141;28;25052;-79
2021/08/17 10:48:50;;;;;;;11.25;5.13;;;15.70;99.90;;;;;;5013553;28;25065;-76
2021/08/17 10:51:18;;;;;;;10.73;5.68;;;15.70;99.90;;;;;;5014908;28;25055;-77
2021/08/17 10:54:04;;;;;;;7.50;5.10;;;15.70;99.90;;;;;;5015796;28;25103;-78
2021/08/17 10:56:34;;;;;;;11.70;6.07;;;15.80;99.90;;;;;;4979632;28;25140;-78
2021/08/17 10:59:01;;;;;;;10.80;6.22;;;15.70;99.90;;;;;;5013867;28;25107;-79
2021/08/17 11:01:42;;;;;;;14.88;6.53;;;15.70;99.90;;;;;;4998804;28;25153;-77
2021/08/17 11:04:18;;;;;;;12.55;6.47;;;15.70;99.90;;;;;;5013674;28;25149;-77
2021/08/17 11:06:55;;;;;;;12.02;6.50;;;15.60;99.90;;;;;;4994838;28;25069;-79
2021/08/17 11:09:36;;;;;;;16.98;6.78;;;15.60;99.90;;;;;;5014361;28;25097;-78
2021/08/17 11:12:10;;;;;;;15.65;6.22;;;15.60;99.90;;;;;;5009005;28;25051;-78
2021/08/17 11:14:38;;;;;;;9.73;6.43;;;15.60;99.90;;;;;;5015388;28;25091;-77
2021/08/17 11:17:15;;;;;;;13.27;7.15;;;15.70;99.90;;;;;;5021724;28;25072;-81
2021/08/17 11:19:48;;;;;;;15.95;6.93;;;15.60;99.90;;;;;;4991186;28;25078;-80
2021/08/17 11:22:16;;;;;;;12.73;6.90;;;15.60;99.90;;;;;;4999748;28;25076;-78
2021/08/17 11:24:51;;;;;;;12.68;7.35;;;15.60;99.90;;;;;;5003784;28;25082;-76
2021/08/17 11:27:27;;;;;;;14.02;7.05;;;15.60;99.90;;;;;;5012645;28;25080;-78
2021/08/17 11:30:04;;;;;;;11.60;7.25;;;15.60;99.90;;;;;;5005781;28;25055;-79
2021/08/17 11:32:31;;;;;;;13.15;8.05;;;15.60;99.90;;;;;;5006817;28;25077;-78
2021/08/17 11:35:01;;;;;;;14.77;6.53;;;15.70;99.90;;;;;;5012688;28;25073;-78
2021/08/17 11:37:26;;;;;;;12.27;7.55;;;15.80;99.90;;;;;;5010751;28;25150;-78
2021/08/17 11:39:55;;;;;;;14.43;6.75;;;15.70;99.90;;;;;;5012106;28;25077;-78
2021/08/17 11:42:23;;;;;;;10.70;6.40;;;15.60;99.90;;;;;;5012848;28;25070;-78
2021/08/17 11:45:12;;;;;;;8.50;6.88;;;15.50;99.90;;;;;;5012366;28;25069;-78
2021/08/17 11:47:40;;;;;;;10.75;6.70;;;15.40;99.90;;;;;;5012486;28;25123;-77
2021/08/17 11:50:11;;;;;;;15.80;6.85;;;15.40;99.90;;;;;;5012359;28;25079;-77
2021/08/17 11:52:51;;;;;;;13.00;8.77;;;15.40;99.90;;;;;;5000897;28;25085;-78
2021/08/17 11:55:23;;;;;;;11.95;7.18;;;15.40;99.90;;;;;;5010943;28;25065;-76
2021/08/17 11:57:53;;;;;;;12.43;7.97;;;15.50;99.90;;;;;;5010679;28;25131;-77
2021/08/17 12:00:30;;;;;;;13.52;8.23;;;15.40;99.90;;;;;;5017440;28;25103;-76
2021/08/17 12:02:58;;;;;;;12.85;7.47;;;15.40;99.90;;;;;;5014577;28;25061;-78
2021/08/17 12:05:27;;;;;;;9.68;7.40;;;15.30;99.90;;;;;;5015771;28;25063;-78
2021/08/17 12:07:54;;;;;;;12.85;8.25;;;15.20;99.90;;;;;;5016332;28;25062;-76
2021/08/17 12:10:21;;;;;;;13.52;7.88;;;15.20;99.90;;;;;;5015052;28;25172;-76
2021/08/17 12:12:55;;;;;;;16.05;7.35;;;15.30;99.90;;;;;;5014473;28;25102;-78
2021/08/17 12:15:38;;;;;;;16.52;7.30;;;15.20;99.90;;;;;;5016576;28;25154;-74
2021/08/17 12:18:31;;;;;;;17.00;7.28;;;15.20;99.90;;;;;;5010836;28;25054;-75
2021/08/17 12:21:05;;;;;;;11.40;6.80;;;15.20;99.90;;;;;;4991028;28;25069;-75
2021/08/17 12:23:43;;;;;;;12.50;6.55;;;15.30;99.90;;;;;;5021720;28;25100;-73
2021/08/17 12:26:19;;;;;;;9.88;6.22;;;15.30;99.90;;;;;;5025386;28;25063;-72
2021/08/17 12:28:47;;;;;;;9.43;5.38;;;15.30;99.90;;;;;;5019197;28;25073;-70
2021/08/17 12:31:32;;;;;;;8.10;5.15;;;15.30;99.90;;;;;;5011402;28;25062;-71
2021/08/17 12:34:01;;;;;;;9.25;5.20;;;15.20;99.90;;;;;;5010304;28;25071;-71
2021/08/17 12:36:41;;;;;;;9.35;5.20;;;15.20;99.90;;;;;;5010698;28;25074;-70
2021/08/17 12:39:08;;;;;;;7.63;4.93;;;15.30;99.90;;;;;;5009703;28;25106;-71